createdAt,value
2017-04-01T00:00:08.129Z,19.08
2017-04-01T00:00:34.212Z,19.18
2017-04-01T00:01:00.314Z,19.07
2017-04-01T00:01:26.399Z,19.11
2017-04-01T00:01:52.478Z,19.09
2017-04-01T00:02:18.559Z,18.99
2017-04-01T00:02:44.642Z,18.9
2017-04-01T00:03:10.744Z,18.86
2017-04-01T00:03:36.826Z,18.81
2017-04-01T00:04:02.911Z,18.75
2017-04-01T00:04:28.993Z,18.78
2017-04-01T00:04:55.074Z,18.71
2017-04-01T00:05:21.160Z,18.68
2017-04-01T00:05:47.241Z,18.68
2017-04-01T00:06:13.321Z,18.62
2017-04-01T00:06:39.408Z,18.63
2017-04-01T00:07:05.489Z,18.5
2017-04-01T00:07:31.572Z,18.56
2017-04-01T00:07:57.652Z,18.38
2017-04-01T00:08:23.736Z,18.38
2017-04-01T00:08:49.819Z,18.5
2017-04-01T00:09:15.899Z,18.5
2017-04-01T00:09:41.983Z,18.53
2017-04-01T00:10:08.068Z,18.53
2017-04-01T00:10:34.148Z,18.56
2017-04-01T00:11:00.232Z,18.53
2017-04-01T00:11:26.317Z,18.47
2017-04-01T00:11:52.398Z,18.52
2017-04-01T00:12:18.478Z,18.55
2017-04-01T00:12:44.561Z,18.55
2017-04-01T00:13:10.640Z,18.5
2017-04-01T00:13:36.724Z,18.52
2017-04-01T00:14:02.804Z,18.52
2017-04-01T00:14:28.883Z,18.49
2017-04-01T00:14:54.967Z,18.5
2017-04-01T00:15:21.052Z,18.5
2017-04-01T00:15:47.130Z,18.55
2017-04-01T00:16:13.217Z,18.5
2017-04-01T00:16:39.322Z,18.6
2017-04-01T00:17:05.402Z,18.65
2017-04-01T00:17:31.487Z,18.6
2017-04-01T00:17:57.592Z,18.71
2017-04-01T00:18:23.677Z,18.65
2017-04-01T00:18:49.756Z,18.66
2017-04-01T00:19:15.841Z,18.71
2017-04-01T00:19:41.948Z,18.68
2017-04-01T00:20:08.033Z,18.68
2017-04-01T00:20:34.113Z,18.66
2017-04-01T00:21:00.218Z,18.73
2017-04-01T00:21:26.303Z,18.78
2017-04-01T00:21:52.387Z,18.75
2017-04-01T00:22:18.466Z,18.74
2017-04-01T00:22:44.551Z,18.75
2017-04-01T00:23:10.659Z,18.73
2017-04-01T00:23:36.734Z,18.78
2017-04-01T00:24:02.818Z,18.7
2017-04-01T00:24:28.902Z,18.75
2017-04-01T00:24:54.982Z,18.78
2017-04-01T00:25:21.066Z,18.71
2017-04-01T00:25:47.149Z,18.8
2017-04-01T00:26:13.253Z,18.68
2017-04-01T00:26:39.336Z,18.77
2017-04-01T00:27:05.420Z,18.74
2017-04-01T00:27:31.506Z,18.7
2017-04-01T00:27:57.610Z,18.75
2017-04-01T00:28:23.693Z,18.71
2017-04-01T00:28:49.777Z,18.73
2017-04-01T00:29:15.861Z,18.74
2017-04-01T00:29:41.939Z,18.78
2017-04-01T00:30:08.024Z,18.71
2017-04-01T00:30:34.108Z,18.75
2017-04-01T00:31:00.189Z,18.71
2017-04-01T00:31:26.271Z,18.75
2017-04-01T00:31:52.375Z,18.75
2017-04-01T00:32:18.459Z,18.81
2017-04-01T00:32:44.561Z,18.81
2017-04-01T00:33:10.644Z,18.75
2017-04-01T00:33:36.729Z,18.83
2017-04-01T00:34:02.809Z,18.75
2017-04-01T00:34:28.891Z,18.81
2017-04-01T00:34:54.975Z,18.81
2017-04-01T00:35:21.059Z,18.83
2017-04-01T00:35:47.140Z,18.75
2017-04-01T00:36:13.223Z,18.81
2017-04-01T00:36:39.306Z,18.88
2017-04-01T00:37:05.387Z,18.74
2017-04-01T00:37:31.469Z,18.75
2017-04-01T00:37:57.572Z,18.63
2017-04-01T00:38:23.657Z,18.59
2017-04-01T00:38:49.739Z,18.5
2017-04-01T00:39:15.821Z,18.45
2017-04-01T00:39:41.905Z,18.34
2017-04-01T00:40:07.987Z,18.34
2017-04-01T00:40:34.096Z,18.26
2017-04-01T00:41:00.177Z,18.2
2017-04-01T00:41:26.281Z,18.18
2017-04-01T00:41:52.364Z,18.18
2017-04-01T00:42:18.448Z,18.13
2017-04-01T00:42:44.528Z,18.08
2017-04-01T00:43:10.610Z,18.05
2017-04-01T00:43:36.718Z,17.95
2017-04-01T00:44:02.824Z,17.98
2017-04-01T00:44:28.925Z,17.87
2017-04-01T00:44:55.007Z,17.87
2017-04-01T00:45:21.112Z,17.76
2017-04-01T00:45:47.194Z,17.74
2017-04-01T00:46:13.300Z,17.78
2017-04-01T00:46:39.384Z,17.8
2017-04-01T00:47:05.466Z,17.76
2017-04-01T00:47:31.549Z,17.76
2017-04-01T00:47:57.656Z,17.72
2017-04-01T00:48:23.739Z,17.59
2017-04-01T00:48:49.846Z,17.65
2017-04-01T00:49:15.926Z,17.78
2017-04-01T00:49:42.008Z,17.76
2017-04-01T00:50:08.090Z,17.86
2017-04-01T00:50:34.171Z,17.83
2017-04-01T00:51:00.251Z,17.82
2017-04-01T00:51:26.332Z,17.87
2017-04-01T00:51:52.412Z,17.8
2017-04-01T00:52:18.496Z,17.76
2017-04-01T00:52:44.579Z,17.78
2017-04-01T00:53:10.658Z,17.64
2017-04-01T00:53:36.743Z,17.64
2017-04-01T00:54:02.828Z,17.65
2017-04-01T00:54:28.908Z,17.67
2017-04-01T00:54:54.989Z,17.59
2017-04-01T00:55:21.072Z,17.63
2017-04-01T00:55:47.151Z,17.6
2017-04-01T00:56:13.236Z,17.59
2017-04-01T00:56:39.321Z,17.45
2017-04-01T00:57:05.404Z,17.49
2017-04-01T00:57:31.485Z,17.49
2017-04-01T00:57:57.569Z,17.42
2017-04-01T00:58:23.654Z,17.51
2017-04-01T00:58:49.732Z,17.44
2017-04-01T00:59:15.816Z,17.48
2017-04-01T00:59:41.920Z,17.52
2017-04-01T01:00:08.029Z,17.44
2017-04-01T01:00:34.109Z,17.39
2017-04-01T01:01:00.190Z,17.36
2017-04-01T01:01:26.276Z,17.33
2017-04-01T01:01:52.377Z,17.33
2017-04-01T01:02:18.458Z,17.36
2017-04-01T01:02:44.541Z,17.34
2017-04-01T01:03:10.623Z,17.33
2017-04-01T01:03:36.705Z,17.33
2017-04-01T01:04:02.811Z,17.29
2017-04-01T01:04:28.893Z,17.3
2017-04-01T01:04:54.975Z,17.26
2017-04-01T01:05:21.058Z,17.3
2017-04-01T01:05:47.143Z,17.27
2017-04-01T01:06:13.227Z,17.24
2017-04-01T01:06:39.355Z,17.24
2017-04-01T01:07:05.435Z,17.27
2017-04-01T01:07:31.520Z,17.26
2017-04-01T01:07:57.604Z,17.29
2017-04-01T01:08:23.685Z,17.27
2017-04-01T01:08:49.790Z,17.26
2017-04-01T01:09:15.872Z,17.31
2017-04-01T01:09:41.953Z,17.22
2017-04-01T01:10:08.035Z,17.19
2017-04-01T01:10:34.121Z,17.08
2017-04-01T01:11:00.200Z,17.01
2017-04-01T01:11:26.284Z,17.11
2017-04-01T01:11:52.368Z,16.99
2017-04-01T01:12:18.450Z,16.94
2017-04-01T01:12:44.552Z,16.93
2017-04-01T01:13:10.635Z,16.87
2017-04-01T01:13:36.754Z,16.87
2017-04-01T01:14:02.806Z,16.87
2017-04-01T01:14:28.910Z,16.81
2017-04-01T01:14:54.991Z,16.78
2017-04-01T01:15:21.076Z,16.78
2017-04-01T01:15:47.159Z,16.72
2017-04-01T01:16:13.240Z,16.69
2017-04-01T01:16:39.322Z,16.71
2017-04-01T01:17:05.450Z,16.71
2017-04-01T01:17:31.534Z,16.69
2017-04-01T01:17:57.615Z,16.68
2017-04-01T01:18:23.697Z,16.66
2017-04-01T01:18:49.805Z,16.68
2017-04-01T01:19:15.887Z,16.69
2017-04-01T01:19:41.966Z,16.71
2017-04-01T01:20:08.051Z,16.61
2017-04-01T01:20:34.134Z,16.6
2017-04-01T01:21:00.214Z,16.56
2017-04-01T01:21:26.297Z,16.56
2017-04-01T01:21:52.405Z,16.6
2017-04-01T01:22:18.490Z,16.6
2017-04-01T01:22:44.568Z,16.6
2017-04-01T01:23:10.652Z,16.61
2017-04-01T01:23:36.735Z,16.71
2017-04-01T01:24:02.816Z,16.71
2017-04-01T01:24:28.924Z,16.65
2017-04-01T01:24:55.027Z,16.66
2017-04-01T01:25:21.109Z,16.66
2017-04-01T01:25:47.188Z,16.71
2017-04-01T01:26:13.271Z,16.65
2017-04-01T01:26:39.352Z,16.71
2017-04-01T01:27:05.430Z,16.57
2017-04-01T01:27:31.515Z,16.6
2017-04-01T01:27:57.597Z,16.51
2017-04-01T01:28:23.679Z,16.43
2017-04-01T01:28:49.761Z,16.53
2017-04-01T01:29:15.844Z,16.5
2017-04-01T01:29:41.925Z,16.42
2017-04-01T01:30:08.009Z,16.42
2017-04-01T01:30:34.093Z,16.46
2017-04-01T01:31:00.174Z,16.38
2017-04-01T01:31:26.278Z,16.41
2017-04-01T01:31:52.359Z,16.39
2017-04-01T01:32:18.465Z,16.42
2017-04-01T01:32:44.569Z,16.39
2017-04-01T01:33:10.650Z,16.47
2017-04-01T01:33:36.734Z,16.41
2017-04-01T01:34:02.815Z,16.36
2017-04-01T01:34:28.897Z,16.41
2017-04-01T01:34:54.979Z,16.38
2017-04-01T01:35:21.063Z,16.35
2017-04-01T01:35:47.144Z,16.47
2017-04-01T01:36:13.248Z,16.47
2017-04-01T01:36:39.333Z,16.47
2017-04-01T01:37:05.439Z,16.58
2017-04-01T01:37:31.567Z,16.65
2017-04-01T01:37:57.671Z,16.66
2017-04-01T01:38:23.753Z,16.68
2017-04-01T01:38:49.832Z,16.78
2017-04-01T01:39:15.913Z,16.79
2017-04-01T01:39:41.997Z,16.79
2017-04-01T01:40:08.082Z,16.78
2017-04-01T01:40:34.158Z,16.86
2017-04-01T01:41:00.263Z,16.9
2017-04-01T01:41:26.344Z,16.87
2017-04-01T01:41:52.425Z,16.99
2017-04-01T01:42:18.531Z,17.04
2017-04-01T01:42:44.658Z,17.08
2017-04-01T01:43:10.737Z,17.02
2017-04-01T01:43:36.820Z,16.94
2017-04-01T01:44:02.904Z,17.08
2017-04-01T01:44:28.986Z,17.04
2017-04-01T01:44:55.065Z,17.15
2017-04-01T01:45:21.148Z,17.16
2017-04-01T01:45:47.231Z,17.14
2017-04-01T01:46:13.313Z,17.24
2017-04-01T01:46:39.417Z,17.23
2017-04-01T01:47:05.501Z,17.24
2017-04-01T01:47:31.601Z,17.26
2017-04-01T01:47:57.684Z,17.27
2017-04-01T01:48:23.767Z,17.3
2017-04-01T01:48:49.848Z,17.31
2017-04-01T01:49:15.929Z,17.41
2017-04-01T01:49:42.012Z,17.38
2017-04-01T01:50:08.090Z,17.42
2017-04-01T01:50:34.196Z,17.46
2017-04-01T01:51:00.302Z,17.44
2017-04-01T01:51:26.383Z,17.44
2017-04-01T01:51:52.463Z,17.45
2017-04-01T01:52:18.568Z,17.46
2017-04-01T01:52:44.650Z,17.34
2017-04-01T01:53:10.753Z,17.45
2017-04-01T01:53:36.834Z,17.39
2017-04-01T01:54:02.942Z,17.42
2017-04-01T01:54:29.024Z,17.46
2017-04-01T01:54:55.106Z,17.34
2017-04-01T01:55:21.191Z,17.27
2017-04-01T01:55:47.274Z,17.23
2017-04-01T01:56:13.354Z,17.22
2017-04-01T01:56:39.438Z,17.16
2017-04-01T01:57:05.522Z,17.27
2017-04-01T01:57:31.602Z,17.31
2017-04-01T01:57:57.683Z,17.27
2017-04-01T01:58:23.766Z,17.26
2017-04-01T01:58:49.848Z,17.19
2017-04-01T01:59:15.949Z,17.19
2017-04-01T01:59:42.032Z,17.19
2017-04-01T02:00:08.116Z,17.19
2017-04-01T02:00:34.194Z,17.09
2017-04-01T02:01:00.279Z,17.12
2017-04-01T02:01:26.385Z,16.94
2017-04-01T02:01:52.469Z,17.05
2017-04-01T02:02:18.548Z,17.05
2017-04-01T02:02:44.633Z,16.94
2017-04-01T02:03:10.717Z,16.86
2017-04-01T02:03:36.802Z,16.9
2017-04-01T02:04:02.879Z,16.87
2017-04-01T02:04:28.962Z,16.81
2017-04-01T02:04:55.044Z,16.75
2017-04-01T02:05:21.147Z,16.75
2017-04-01T02:05:47.230Z,16.76
2017-04-01T02:06:13.335Z,16.68
2017-04-01T02:06:39.416Z,16.66
2017-04-01T02:07:05.498Z,16.69
2017-04-01T02:07:31.583Z,16.64
2017-04-01T02:07:57.661Z,16.47
2017-04-01T02:08:23.744Z,16.51
2017-04-01T02:08:49.826Z,16.53
2017-04-01T02:09:15.910Z,16.47
2017-04-01T02:09:41.991Z,16.46
2017-04-01T02:10:08.097Z,16.51
2017-04-01T02:10:34.178Z,16.41
2017-04-01T02:11:00.280Z,16.47
2017-04-01T02:11:26.363Z,16.49
2017-04-01T02:11:52.468Z,16.43
2017-04-01T02:12:18.548Z,16.41
2017-04-01T02:12:44.630Z,16.38
2017-04-01T02:13:10.713Z,16.46
2017-04-01T02:13:36.793Z,16.41
2017-04-01T02:14:02.878Z,16.41
2017-04-01T02:14:28.959Z,16.35
2017-04-01T02:14:55.063Z,16.28
2017-04-01T02:15:21.146Z,16.32
2017-04-01T02:15:47.227Z,16.33
2017-04-01T02:16:13.310Z,16.32
2017-04-01T02:16:39.414Z,16.28
2017-04-01T02:17:05.518Z,16.29
2017-04-01T02:17:31.602Z,16.29
2017-04-01T02:17:57.685Z,16.33
2017-04-01T02:18:23.765Z,16.29
2017-04-01T02:18:49.848Z,16.31
2017-04-01T02:19:15.930Z,16.29
2017-04-01T02:19:42.009Z,16.41
2017-04-01T02:20:08.093Z,16.32
2017-04-01T02:20:34.199Z,16.35
2017-04-01T02:21:00.329Z,16.28
2017-04-01T02:21:26.430Z,16.31
2017-04-01T02:21:52.535Z,16.28
2017-04-01T02:22:18.619Z,16.39
2017-04-01T02:22:44.699Z,16.36
2017-04-01T02:23:10.779Z,16.42
2017-04-01T02:23:36.862Z,16.46
2017-04-01T02:24:02.943Z,16.49
2017-04-01T02:24:29.025Z,16.53
2017-04-01T02:24:55.108Z,16.57
2017-04-01T02:25:21.189Z,16.57
2017-04-01T02:25:47.270Z,16.61
2017-04-01T02:26:13.376Z,16.66
2017-04-01T02:26:39.458Z,16.66
2017-04-01T02:27:05.539Z,16.57
2017-04-01T02:27:31.620Z,16.56
2017-04-01T02:27:57.706Z,16.5
2017-04-01T02:28:23.789Z,16.42
2017-04-01T02:28:49.899Z,16.49
2017-04-01T02:29:15.949Z,16.47
2017-04-01T02:29:42.030Z,16.47
2017-04-01T02:30:08.111Z,16.46
2017-04-01T02:30:34.194Z,16.39
2017-04-01T02:31:00.277Z,16.47
2017-04-01T02:31:26.377Z,16.35
2017-04-01T02:31:52.462Z,16.39
2017-04-01T02:32:18.545Z,16.36
2017-04-01T02:32:44.646Z,16.35
2017-04-01T02:33:10.728Z,16.32
2017-04-01T02:33:36.812Z,16.33
2017-04-01T02:34:02.911Z,16.32
2017-04-01T02:34:29.016Z,16.42
2017-04-01T02:34:55.098Z,16.41
2017-04-01T02:35:21.178Z,16.51
2017-04-01T02:35:47.283Z,16.41
2017-04-01T02:36:13.388Z,16.42
2017-04-01T02:36:39.491Z,16.47
2017-04-01T02:37:05.595Z,16.49
2017-04-01T02:37:31.676Z,16.5
2017-04-01T02:37:57.760Z,16.49
2017-04-01T02:38:23.842Z,16.42
2017-04-01T02:38:49.922Z,16.54
2017-04-01T02:39:16.004Z,16.46
2017-04-01T02:39:42.108Z,16.5
2017-04-01T02:40:08.190Z,16.41
2017-04-01T02:40:34.273Z,16.47
2017-04-01T02:41:00.352Z,16.47
2017-04-01T02:41:26.455Z,16.56
2017-04-01T02:41:52.537Z,16.61
2017-04-01T02:42:18.616Z,16.6
2017-04-01T02:42:44.697Z,16.71
2017-04-01T02:43:10.802Z,16.68
2017-04-01T02:43:36.883Z,16.61
2017-04-01T02:44:02.966Z,16.57
2017-04-01T02:44:29.050Z,16.56
2017-04-01T02:44:55.132Z,16.58
2017-04-01T02:45:21.234Z,16.68
2017-04-01T02:45:47.317Z,16.65
2017-04-01T02:46:13.399Z,16.78
2017-04-01T02:46:39.478Z,16.71
2017-04-01T02:47:05.562Z,16.78
2017-04-01T02:47:31.669Z,16.75
2017-04-01T02:47:57.752Z,16.79
2017-04-01T02:48:23.833Z,16.81
2017-04-01T02:48:49.920Z,16.74
2017-04-01T02:49:16.000Z,16.79
2017-04-01T02:49:42.081Z,16.83
2017-04-01T02:50:08.163Z,16.9
2017-04-01T02:50:34.246Z,16.87
2017-04-01T02:51:00.331Z,16.94
2017-04-01T02:51:26.411Z,16.93
2017-04-01T02:51:52.494Z,17.01
2017-04-01T02:52:18.602Z,16.99
2017-04-01T02:52:44.685Z,17.01
2017-04-01T02:53:10.785Z,17.01
2017-04-01T02:53:36.870Z,16.94
2017-04-01T02:54:02.954Z,16.97
2017-04-01T02:54:29.033Z,16.97
2017-04-01T02:54:55.139Z,16.94
2017-04-01T02:55:21.221Z,17.01
2017-04-01T02:55:47.303Z,17.02
2017-04-01T02:56:13.386Z,16.94
2017-04-01T02:56:39.469Z,17.09
2017-04-01T02:57:05.554Z,17.05
2017-04-01T02:57:31.634Z,16.99
2017-04-01T02:57:57.739Z,16.99
2017-04-01T02:58:23.822Z,16.99
2017-04-01T02:58:49.926Z,17.02
2017-04-01T02:59:16.029Z,17.11
2017-04-01T02:59:42.112Z,17.11
2017-04-01T03:00:08.198Z,17.16
2017-04-01T03:00:34.304Z,17.12
2017-04-01T03:01:00.388Z,17.16
2017-04-01T03:01:26.493Z,17.22
2017-04-01T03:01:52.577Z,17.19
2017-04-01T03:02:18.682Z,17.19
2017-04-01T03:02:44.766Z,17.14
2017-04-01T03:03:10.845Z,17.12
2017-04-01T03:03:36.927Z,17.12
2017-04-01T03:04:03.035Z,17.09
2017-04-01T03:04:29.116Z,17.08
2017-04-01T03:04:55.218Z,17.15
2017-04-01T03:05:21.303Z,17.09
2017-04-01T03:05:47.408Z,17.22
2017-04-01T03:06:13.491Z,17.23
2017-04-01T03:06:39.571Z,17.19
2017-04-01T03:07:05.692Z,17.14
2017-04-01T03:07:31.769Z,17.23
2017-04-01T03:07:57.844Z,17.14
2017-04-01T03:08:23.950Z,17.22
2017-04-01T03:08:50.080Z,17.15
2017-04-01T03:09:16.163Z,17.22
2017-04-01T03:09:42.247Z,17.22
2017-04-01T03:10:08.331Z,17.23
2017-04-01T03:10:34.411Z,17.23
2017-04-01T03:11:00.498Z,17.29
2017-04-01T03:11:26.585Z,17.3
2017-04-01T03:11:52.659Z,17.33
2017-04-01T03:12:18.742Z,17.34
2017-04-01T03:12:44.823Z,17.31
2017-04-01T03:13:10.904Z,17.27
2017-04-01T03:13:36.988Z,17.26
2017-04-01T03:14:03.072Z,17.23
2017-04-01T03:14:29.179Z,17.3
2017-04-01T03:14:55.259Z,17.36
2017-04-01T03:15:21.343Z,17.36
2017-04-01T03:15:47.423Z,17.3
2017-04-01T03:16:13.501Z,17.3
2017-04-01T03:16:39.586Z,17.27
2017-04-01T03:17:05.669Z,17.26
2017-04-01T03:17:31.775Z,17.26
2017-04-01T03:17:57.855Z,17.3
2017-04-01T03:18:23.938Z,17.24
2017-04-01T03:18:50.019Z,17.23
2017-04-01T03:19:16.098Z,17.22
2017-04-01T03:19:42.187Z,17.19
2017-04-01T03:20:08.265Z,17.23
2017-04-01T03:20:34.347Z,17.3
2017-04-01T03:21:00.452Z,17.26
2017-04-01T03:21:26.537Z,17.27
2017-04-01T03:21:52.664Z,17.26
2017-04-01T03:22:18.745Z,17.31
2017-04-01T03:22:44.826Z,17.33
2017-04-01T03:23:10.908Z,17.34
2017-04-01T03:23:37.010Z,17.29
2017-04-01T03:24:03.093Z,17.3
2017-04-01T03:24:29.180Z,17.23
2017-04-01T03:24:55.263Z,17.29
2017-04-01T03:25:21.342Z,17.24
2017-04-01T03:25:47.424Z,17.2
2017-04-01T03:26:13.529Z,17.15
2017-04-01T03:26:39.607Z,17.19
2017-04-01T03:27:05.690Z,17.15
2017-04-01T03:27:31.772Z,17.15
2017-04-01T03:27:57.852Z,17.12
2017-04-01T03:28:23.934Z,17.14
2017-04-01T03:28:50.016Z,17.05
2017-04-01T03:29:16.119Z,17.02
2017-04-01T03:29:42.202Z,17.05
2017-04-01T03:30:08.285Z,16.93
2017-04-01T03:30:34.363Z,16.96
2017-04-01T03:31:00.446Z,16.9
2017-04-01T03:31:26.527Z,16.89
2017-04-01T03:31:52.605Z,16.89
2017-04-01T03:32:18.691Z,16.89
2017-04-01T03:32:44.775Z,16.99
2017-04-01T03:33:10.857Z,16.93
2017-04-01T03:33:36.937Z,17.01
2017-04-01T03:34:03.020Z,16.87
2017-04-01T03:34:29.101Z,17.01
2017-04-01T03:34:55.204Z,16.86
2017-04-01T03:35:21.307Z,16.91
2017-04-01T03:35:47.393Z,16.79
2017-04-01T03:36:13.468Z,16.75
2017-04-01T03:36:39.550Z,16.69
2017-04-01T03:37:05.630Z,16.49
2017-04-01T03:37:31.714Z,16.51
2017-04-01T03:37:57.796Z,16.42
2017-04-01T03:38:23.898Z,16.41
2017-04-01T03:38:50.000Z,16.29
2017-04-01T03:39:16.084Z,16.28
2017-04-01T03:39:42.164Z,16.26
2017-04-01T03:40:08.244Z,16.2
2017-04-01T03:40:34.328Z,16.16
2017-04-01T03:41:00.435Z,16.13
2017-04-01T03:41:26.541Z,16.16
2017-04-01T03:41:52.618Z,16.15
2017-04-01T03:42:18.702Z,16.1
2017-04-01T03:42:44.781Z,16.12
2017-04-01T03:43:10.885Z,16.09
2017-04-01T03:43:36.970Z,16.04
2017-04-01T03:44:03.054Z,16.05
2017-04-01T03:44:29.155Z,15.98
2017-04-01T03:44:55.237Z,15.98
2017-04-01T03:45:21.323Z,15.91
2017-04-01T03:45:47.404Z,15.95
2017-04-01T03:46:13.482Z,15.9
2017-04-01T03:46:39.567Z,15.94
2017-04-01T03:47:05.648Z,15.86
2017-04-01T03:47:31.729Z,15.86
2017-04-01T03:47:57.813Z,15.8
2017-04-01T03:48:23.891Z,15.88
2017-04-01T03:48:49.973Z,15.9
2017-04-01T03:49:16.079Z,15.84
2017-04-01T03:49:42.184Z,15.88
2017-04-01T03:52:57.388Z,15.84
2017-04-01T03:53:23.493Z,15.88
2017-04-01T03:53:49.577Z,15.92
2017-04-01T03:54:15.661Z,15.86
2017-04-01T03:54:41.745Z,15.84
2017-04-01T03:55:07.830Z,15.98
2017-04-01T03:55:33.913Z,15.95
2017-04-01T03:55:59.999Z,15.95
2017-04-01T03:56:26.080Z,15.95
2017-04-01T03:56:52.165Z,16.02
2017-04-01T03:57:18.249Z,15.98
2017-04-01T03:57:44.336Z,16.04
2017-04-01T03:58:10.419Z,16.09
2017-04-01T03:58:36.501Z,16.08
2017-04-01T03:59:02.582Z,16.16
2017-04-01T03:59:28.668Z,16.1
2017-04-01T03:59:54.755Z,16.16
2017-04-01T04:00:20.838Z,16.16
2017-04-01T04:00:46.942Z,16.21
2017-04-01T04:01:13.026Z,16.29
2017-04-01T04:01:39.110Z,16.26
2017-04-01T04:02:05.195Z,16.23
2017-04-01T04:02:31.301Z,16.29
2017-04-01T04:02:57.437Z,16.29
2017-04-01T04:03:23.521Z,16.26
2017-04-01T04:03:49.626Z,16.13
2017-04-01T04:04:15.708Z,16.16
2017-04-01T04:04:41.793Z,16.12
2017-04-01T04:05:07.876Z,16.08
2017-04-01T04:05:33.983Z,16.13
2017-04-01T04:06:00.066Z,16.08
2017-04-01T04:06:26.149Z,16.23
2017-04-01T04:06:52.235Z,16.13
2017-04-01T04:07:18.318Z,16.1
2017-04-01T04:07:44.401Z,16.08
2017-04-01T04:08:10.487Z,16.12
2017-04-01T04:08:36.592Z,16.09
2017-04-01T04:09:02.677Z,16.1
2017-04-01T04:09:28.762Z,16.09
2017-04-01T04:09:54.871Z,16.13
2017-04-01T04:10:20.955Z,16.15
2017-04-01T04:10:47.039Z,16.09
2017-04-01T04:11:13.123Z,16.09
2017-04-01T04:11:39.208Z,16.09
2017-04-01T04:12:05.316Z,16.17
2017-04-01T04:12:31.400Z,16.16
2017-04-01T04:12:57.485Z,16.1
2017-04-01T04:13:23.564Z,16.15
2017-04-01T04:13:49.647Z,16.21
2017-04-01T04:14:15.730Z,16.09
2017-04-01T04:14:41.812Z,16.05
2017-04-01T04:15:07.896Z,16.15
2017-04-01T04:15:33.980Z,16.09
2017-04-01T04:16:00.065Z,16.09
2017-04-01T04:16:26.150Z,16.16
2017-04-01T04:16:52.233Z,16.05
2017-04-01T04:17:18.315Z,16.08
2017-04-01T04:17:44.401Z,16.05
2017-04-01T04:18:10.487Z,16.02
2017-04-01T04:18:36.591Z,16.12
2017-04-01T04:19:02.670Z,16.04
2017-04-01T04:19:28.780Z,16.05
2017-04-01T04:19:54.886Z,16.1
2017-04-01T04:20:20.971Z,16.09
2017-04-01T04:20:47.077Z,15.97
2017-04-01T04:21:13.186Z,16.02
2017-04-01T04:21:39.268Z,16.09
2017-04-01T04:22:05.372Z,16.13
2017-04-01T04:22:31.456Z,16.12
2017-04-01T04:22:57.541Z,16.15
2017-04-01T04:23:23.619Z,16.13
2017-04-01T04:23:49.700Z,16.23
2017-04-01T04:24:15.786Z,16.16
2017-04-01T04:24:41.892Z,16.16
2017-04-01T04:25:08.001Z,16.15
2017-04-01T04:25:34.110Z,16.17
2017-04-01T04:26:00.214Z,16.17
2017-04-01T04:26:26.295Z,16.21
2017-04-01T04:26:52.379Z,16.15
2017-04-01T04:27:18.464Z,16.12
2017-04-01T04:27:44.545Z,16.13
2017-04-01T04:28:10.629Z,16.09
2017-04-01T04:28:36.715Z,16.15
2017-04-01T04:29:02.801Z,16.08
2017-04-01T04:29:28.886Z,16.04
2017-04-01T04:29:54.972Z,16.13
2017-04-01T04:30:21.056Z,15.97
2017-04-01T04:30:47.162Z,16.01
2017-04-01T04:31:13.246Z,16.01
2017-04-01T04:31:39.330Z,15.86
2017-04-01T04:32:05.416Z,15.97
2017-04-01T04:32:31.502Z,15.98
2017-04-01T04:32:57.737Z,15.95
2017-04-01T04:33:23.820Z,15.97
2017-04-01T04:33:49.926Z,15.91
2017-04-01T04:34:16.011Z,15.86
2017-04-01T04:34:42.096Z,15.88
2017-04-01T04:35:08.180Z,15.91
2017-04-01T04:35:34.261Z,15.86
2017-04-01T04:36:00.343Z,15.9
2017-04-01T04:36:26.428Z,15.9
2017-04-01T04:36:52.534Z,15.82
2017-04-01T04:37:18.617Z,15.84
2017-04-01T04:37:44.699Z,15.95
2017-04-01T04:38:10.782Z,15.98
2017-04-01T04:38:36.893Z,15.98
2017-04-01T04:39:02.976Z,15.86
2017-04-01T04:39:29.061Z,15.91
2017-04-01T04:39:55.142Z,15.88
2017-04-01T04:40:21.224Z,15.82
2017-04-01T04:40:47.307Z,15.83
2017-04-01T04:41:13.394Z,15.79
2017-04-01T04:41:39.477Z,15.68
2017-04-01T04:42:05.581Z,15.82
2017-04-01T04:42:31.664Z,15.83
2017-04-01T04:42:57.774Z,15.73
2017-04-01T04:43:23.861Z,15.82
2017-04-01T04:43:49.946Z,15.82
2017-04-01T04:44:16.051Z,15.86
2017-04-01T04:44:42.137Z,15.68
2017-04-01T04:45:08.218Z,15.77
2017-04-01T04:45:34.326Z,15.77
2017-04-01T04:46:00.412Z,15.9
2017-04-01T04:46:26.495Z,15.97
2017-04-01T04:46:52.579Z,15.95
2017-04-01T04:47:18.660Z,15.83
2017-04-01T04:47:44.745Z,15.83
2017-04-01T04:48:10.827Z,15.86
2017-04-01T04:48:36.910Z,15.84
2017-04-01T04:49:02.993Z,15.86
2017-04-01T04:49:29.078Z,15.82
2017-04-01T04:49:55.163Z,15.83
2017-04-01T04:50:21.249Z,15.84
2017-04-01T04:50:47.332Z,15.8
2017-04-01T04:51:13.490Z,15.86
2017-04-01T04:51:39.573Z,15.77
2017-04-01T04:52:05.653Z,15.77
2017-04-01T04:52:31.737Z,15.72
2017-04-01T04:52:57.822Z,15.7
2017-04-01T04:53:23.906Z,15.73
2017-04-01T04:53:50.011Z,15.77
2017-04-01T04:54:16.095Z,15.77
2017-04-01T04:54:42.178Z,15.7
2017-04-01T04:55:08.261Z,15.8
2017-04-01T04:55:34.344Z,15.86
2017-04-01T04:56:00.427Z,15.8
2017-04-01T04:56:26.509Z,15.82
2017-04-01T04:56:52.593Z,15.86
2017-04-01T04:57:18.677Z,15.84
2017-04-01T04:57:44.760Z,15.88
2017-04-01T04:58:10.886Z,15.91
2017-04-01T04:58:36.990Z,15.88
2017-04-01T04:59:03.076Z,15.86
2017-04-01T04:59:29.161Z,15.84
2017-04-01T04:59:55.292Z,15.86
2017-04-01T05:00:21.376Z,15.83
2017-04-01T05:00:47.460Z,15.84
2017-04-01T05:01:13.545Z,15.95
2017-04-01T05:01:39.629Z,16
2017-04-01T05:02:05.737Z,15.97
2017-04-01T05:02:31.819Z,15.88
2017-04-01T05:02:57.902Z,15.92
2017-04-01T05:03:24.042Z,15.95
2017-04-01T05:03:50.140Z,15.88
2017-04-01T05:04:16.225Z,15.86
2017-04-01T05:04:42.312Z,15.88
2017-04-01T05:05:08.398Z,15.88
2017-04-01T05:05:34.503Z,15.82
2017-04-01T05:06:00.582Z,15.8
2017-04-01T05:06:26.687Z,15.83
2017-04-01T05:06:52.796Z,15.84
2017-04-01T05:07:18.903Z,15.9
2017-04-01T05:07:45.013Z,15.88
2017-04-01T05:08:11.098Z,15.92
2017-04-01T05:08:37.180Z,15.86
2017-04-01T05:09:03.264Z,15.82
2017-04-01T05:09:29.396Z,15.83
2017-04-01T05:09:55.502Z,15.82
2017-04-01T05:10:21.588Z,15.79
2017-04-01T05:10:47.696Z,15.72
2017-04-01T05:11:13.805Z,15.72
2017-04-01T05:11:39.937Z,15.67
2017-04-01T05:12:06.068Z,15.72
2017-04-01T05:12:32.154Z,15.65
2017-04-01T05:12:58.240Z,15.62
2017-04-01T05:13:24.322Z,15.58
2017-04-01T05:13:50.406Z,15.62
2017-04-01T05:14:16.490Z,15.68
2017-04-01T05:14:42.597Z,15.57
2017-04-01T05:15:08.683Z,15.57
2017-04-01T05:15:34.770Z,15.59
2017-04-01T05:16:00.856Z,15.58
2017-04-01T05:16:26.938Z,15.62
2017-04-01T05:16:53.043Z,15.59
2017-04-01T05:17:19.126Z,15.64
2017-04-01T05:17:45.211Z,15.65
2017-04-01T05:18:11.298Z,15.72
2017-04-01T05:18:37.383Z,15.67
2017-04-01T05:19:03.465Z,15.67
2017-04-01T05:19:29.550Z,15.65
2017-04-01T05:19:55.634Z,15.67
2017-04-01T05:20:21.718Z,15.75
2017-04-01T05:20:47.802Z,15.72
2017-04-01T05:21:13.886Z,15.72
2017-04-01T05:21:40.014Z,15.73
2017-04-01T05:22:06.097Z,15.68
2017-04-01T05:22:32.181Z,15.64
2017-04-01T05:22:58.262Z,15.62
2017-04-01T05:23:24.342Z,15.64
2017-04-01T05:23:50.426Z,15.61
2017-04-01T05:24:16.511Z,15.65
2017-04-01T05:24:42.596Z,15.73
2017-04-01T05:25:08.679Z,15.67
2017-04-01T05:25:34.761Z,15.75
2017-04-01T05:26:00.847Z,15.75
2017-04-01T05:26:26.931Z,15.72
2017-04-01T05:26:53.040Z,15.68
2017-04-01T05:27:19.126Z,15.68
2017-04-01T05:27:45.211Z,15.7
2017-04-01T05:28:11.292Z,15.7
2017-04-01T05:28:37.376Z,15.75
2017-04-01T05:29:03.462Z,15.75
2017-04-01T05:29:29.547Z,15.73
2017-04-01T05:29:55.632Z,15.75
2017-04-01T05:30:21.717Z,15.72
2017-04-01T05:30:47.798Z,15.67
2017-04-01T05:31:13.881Z,15.67
2017-04-01T05:31:39.964Z,15.72
2017-04-01T05:32:06.072Z,15.72
2017-04-01T05:32:32.178Z,15.68
2017-04-01T05:32:58.259Z,15.7
2017-04-01T05:33:24.344Z,15.73
2017-04-01T05:33:50.429Z,15.73
2017-04-01T05:34:16.510Z,15.65
2017-04-01T05:34:42.593Z,15.7
2017-04-01T05:35:08.700Z,15.68
2017-04-01T05:35:34.785Z,15.67
2017-04-01T05:36:00.896Z,15.73
2017-04-01T05:36:26.978Z,15.73
2017-04-01T05:36:53.063Z,15.65
2017-04-01T05:37:19.144Z,15.7
2017-04-01T05:37:45.230Z,15.7
2017-04-01T05:38:11.315Z,15.77
2017-04-01T05:38:37.401Z,15.73
2017-04-01T05:39:03.508Z,15.72
2017-04-01T05:39:29.592Z,15.7
2017-04-01T05:39:55.696Z,15.9